Tropical Cyclones
[Index]
Main Index Home Page Stock Weather Photos Extreme Storms Discussion Storm News and Storm Chasing Reports Tropical Cyclones / Hurricanes / Typhoons Weather Data and Links Wild Fires / Bushfires Weather Observation Techniques Weather Picture Catalogue Tornado Pictures and Reports Stock Video Footage and DVDs for sale
Season 1970-1971 Tropical Cyclone FIONA Track Map
Season 1970-1971 Summaries: [BoM-AU] [JTWC-AU] [JTWC-SIO] [JTWC-SPAC] [JTWC-SH]
<<- Previous TC | BoM 1970-1971 Season | Next TC ->>

click for intensity scale information  Lat/long Grid: Show Hide

 Date Labels: Show Hide

Bureau of Meteorology Tropical Cyclone Data

Name: FIONA
Number: 477 / 197071_16

16 Feb 1971 20:00 UTC to 28 Feb 1971 11:00 UTC

    date/time    lat    long    hPa   cat  kts
1971-02-16 20   16.0   141.4   1002                     
1971-02-16 23   16.0   140.8   1004                     
1971-02-17 11   16.0   139.5    997                     
1971-02-17 23   15.6   138.1    986    1                
1971-02-18 05   15.0   137.5    984    2                
1971-02-18 11   14.0   137.5    980    2                
1971-02-18 17   13.5   138.5    970    3                
1971-02-18 23   14.0   139.7    960    3                
1971-02-19 11   16.1   141.6    965    3                
1971-02-19 15   16.8   142.0    975    2                
1971-02-19 17   17.1   142.3    980    2                
1971-02-19 23   18.3   143.1    990    1                
1971-02-20 11   20.3   146.3    995    1                
1971-02-20 23   22.1   149.0    996                     
1971-02-21 02   22.6   149.3    995    1                
1971-02-21 09   23.1   150.9    995    1                
1971-02-21 11   23.3   151.1    996                     
1971-02-21 23   24.4   152.1    994    1                
1971-02-22 08   24.4   152.8    995    1                
1971-02-22 11   24.3   153.2    996                     
1971-02-22 20   23.8   154.5    994    1                
1971-02-22 23   24.0   155.2    995    1                
1971-02-23 02   24.1   155.8    994    1                
1971-02-23 11   23.5   157.0    993    1                
1971-02-23 23   22.7   158.6    991    1                
1971-02-24 11   22.3   159.8    993    1                
1971-02-24 23   22.0   160.5    992    1                
1971-02-25 11   21.6   161.3    992    1                
1971-02-25 23   21.4   161.9    993    1                
1971-02-26 11   21.2   162.5    993    1                
1971-02-26 23   20.8   163.0    995    1                
1971-02-27 11   20.5   163.1    995    1                
1971-02-27 14   20.4   163.0    995    1                
1971-02-27 23   20.3   162.6    997                     
1971-02-28 11   20.8   161.8   1001                     
Winds are 10-min average.

Tropical cyclone tracks developed by Michael Bath using data from the Bureau of Meteorology and Google Maps.


[Australian Severe Weather index] [Copyright Notice] [Email Contacts] [Search This Site] [Privacy Policy]
Document: tropical_cyclone_fiona.htm Updated: 30 May 2013